Time;durP1;ratioP1;P1;durP2;ratioP2;P2;SDS_P1;SDS_P2;PMS_P1;PMS_P2;Temp;Humidity;BMP_temperature;BMP_pressure;BME280_temperature;BME280_humidity;BME280_pressure;Samples;Min_cycle;Max_cycle;Signal;HPM_P1;HPM_P2
2021/04/24 00:00:48;;;;;;;7.37;4.17;;;;;;;4.49;49.39;96274.13;4993869;28;20274;-74
2021/04/24 00:03:13;;;;;;;7.90;5.03;;;;;;;4.48;49.19;96275.88;4994148;28;20191;-74
2021/04/24 00:05:41;;;;;;;5.90;4.23;;;;;;;4.50;49.37;96275.75;5011131;28;20207;-75
2021/04/24 00:08:08;;;;;;;7.83;4.33;;;;;;;4.49;49.11;96277.50;5010193;28;20175;-75
2021/04/24 00:10:36;;;;;;;5.73;4.50;;;;;;;4.46;49.03;96275.13;5028336;28;20206;-74
2021/04/24 00:13:04;;;;;;;7.47;4.50;;;;;;;4.46;49.23;96267.41;5014094;28;20611;-73
2021/04/24 00:15:29;;;;;;;10.60;4.57;;;;;;;4.47;49.12;96270.81;5030023;28;20229;-75
2021/04/24 00:17:55;;;;;;;7.77;4.50;;;;;;;4.51;48.57;96272.31;5013820;28;20274;-74
2021/04/24 00:20:22;;;;;;;9.03;4.67;;;;;;;4.48;49.02;96275.03;5015026;28;20217;-74
2021/04/24 00:22:48;;;;;;;7.77;4.20;;;;;;;4.46;48.62;96267.41;4981259;28;20191;-74
2021/04/24 00:25:14;;;;;;;7.90;4.53;;;;;;;4.44;48.82;96271.84;4996915;28;20211;-74
2021/04/24 00:27:39;;;;;;;6.10;4.53;;;;;;;4.44;48.91;96266.69;4997244;28;20558;-75
2021/04/24 00:30:07;;;;;;;8.10;4.27;;;;;;;4.47;48.82;96260.53;5030132;28;20270;-74
2021/04/24 00:32:32;;;;;;;7.60;4.40;;;;;;;4.51;48.80;96262.00;5030157;28;20191;-74
2021/04/24 00:34:57;;;;;;;9.00;4.70;;;;;;;4.57;48.43;96260.78;5029969;28;20581;-74
2021/04/24 00:37:23;;;;;;;8.20;4.73;;;;;;;4.57;48.51;96260.78;5013439;28;20230;-74
2021/04/24 00:39:49;;;;;;;8.17;5.17;;;;;;;4.63;48.02;96256.09;5013300;28;20203;-74
2021/04/24 00:42:14;;;;;;;7.70;4.90;;;;;;;4.59;48.39;96249.47;5014722;28;20241;-74
2021/04/24 00:44:46;;;;;;;7.23;4.37;;;;;;;4.60;48.28;96248.59;5012933;28;20241;-74
2021/04/24 00:47:12;;;;;;;6.97;4.57;;;;;;;4.68;48.09;96253.22;4980681;28;20222;-74
2021/04/24 00:49:37;;;;;;;8.13;4.27;;;;;;;4.68;48.29;96250.66;5029471;28;20612;-75
2021/04/24 00:52:03;;;;;;;8.17;4.90;;;;;;;4.66;48.21;96245.63;5014276;28;20183;-74
2021/04/24 00:54:28;;;;;;;6.83;5.20;;;;;;;4.63;48.42;96243.25;5013924;28;20218;-74
2021/04/24 00:56:53;;;;;;;7.07;4.40;;;;;;;4.63;48.54;96238.09;5014386;28;20175;-75
2021/04/24 00:59:19;;;;;;;12.67;4.73;;;;;;;4.65;48.48;96245.72;4996825;28;20210;-75
2021/04/24 01:01:44;;;;;;;7.90;4.97;;;;;;;4.61;48.80;96239.94;4980417;28;20266;-75
2021/04/24 01:04:09;;;;;;;6.73;4.50;;;;;;;4.61;49.10;96239.94;4996638;28;20273;-75
2021/04/24 01:06:35;;;;;;;7.27;4.90;;;;;;;4.54;48.89;96233.53;4995943;28;20674;-73
2021/04/24 01:09:00;;;;;;;7.60;4.57;;;;;;;4.50;49.08;96227.72;5014161;28;20654;-75
2021/04/24 01:11:25;;;;;;;9.07;4.83;;;;;;;4.51;48.67;96229.41;5014108;28;20211;-74
2021/04/24 01:13:50;;;;;;;12.77;5.30;;;;;;;4.44;49.54;96222.16;5014019;28;20638;-73
2021/04/24 01:16:16;;;;;;;6.87;4.47;;;;;;;4.37;49.77;96224.25;4996202;28;20199;-73
2021/04/24 01:18:41;;;;;;;9.33;5.07;;;;;;;4.36;49.87;96224.34;5013989;28;20331;-75
2021/04/24 01:21:08;;;;;;;6.20;4.27;;;;;;;4.28;49.70;96222.25;4996139;28;20318;-76
2021/04/24 01:23:34;;;;;;;7.67;4.60;;;;;;;4.33;49.61;96219.38;4996347;28;20653;-75
2021/04/24 01:26:00;;;;;;;11.50;4.70;;;;;;;4.23;50.38;96219.94;4995943;28;20207;-75
2021/04/24 01:28:28;;;;;;;7.27;4.47;;;;;;;4.24;49.93;96226.75;5013645;28;20306;-76
2021/04/24 01:30:53;;;;;;;7.77;4.50;;;;;;;4.29;50.54;96223.06;5013672;28;20191;-75
2021/04/24 01:33:18;;;;;;;9.60;4.37;;;;;;;4.38;50.18;96219.94;4996134;28;20183;-75
2021/04/24 01:35:44;;;;;;;9.60;4.50;;;;;;;4.39;50.42;96213.88;5013188;28;20198;-75
2021/04/24 01:38:10;;;;;;;8.47;4.57;;;;;;;4.42;50.51;96214.53;4995939;28;20268;-74
2021/04/24 01:40:36;;;;;;;5.03;4.10;;;;;;;4.39;50.43;96214.69;4996208;28;20210;-75
2021/04/24 01:43:02;;;;;;;8.20;4.67;;;;;;;4.36;50.05;96214.91;5013564;28;20180;-75
2021/04/24 01:45:28;;;;;;;6.80;4.47;;;;;;;4.42;50.04;96214.53;4995627;28;20199;-75
2021/04/24 01:47:54;;;;;;;7.13;4.30;;;;;;;4.35;50.05;96217.56;4995373;28;20187;-75
2021/04/24 01:50:30;;;;;;;8.57;4.67;;;;;;;4.31;50.39;96210.94;4995850;28;20266;-75
2021/04/24 01:52:56;;;;;;;8.77;4.13;;;;;;;4.20;50.58;96207.28;4995791;28;20182;-75
2021/04/24 01:55:25;;;;;;;8.40;4.67;;;;;;;4.30;50.30;96207.53;4995470;28;20661;-75
2021/04/24 01:57:51;;;;;;;10.40;5.17;;;;;;;4.31;50.63;96210.94;5011933;28;20179;-75
2021/04/24 02:00:23;;;;;;;8.43;4.80;;;;;;;4.37;49.91;96205.44;5013025;28;20179;-75
2021/04/24 02:02:49;;;;;;;8.77;5.13;;;;;;;4.31;50.50;96209.19;5013231;28;20814;-75
2021/04/24 02:05:15;;;;;;;9.77;4.97;;;;;;;4.21;50.28;96197.81;5011420;28;20297;-75
2021/04/24 02:07:40;;;;;;;10.73;5.33;;;;;;;4.18;50.50;96203.97;5012908;28;20272;-75
2021/04/24 02:10:10;;;;;;;7.77;4.70;;;;;;;4.17;50.55;96194.63;4995601;28;20183;-75
2021/04/24 02:12:36;;;;;;;9.60;5.00;;;;;;;4.16;50.40;96197.28;4995359;28;20627;-75
2021/04/24 02:15:04;;;;;;;11.53;5.23;;;;;;;4.14;50.50;96201.69;4994844;28;20282;-74
2021/04/24 02:17:29;;;;;;;8.73;4.90;;;;;;;4.15;50.77;96203.31;5011669;28;20646;-74
2021/04/24 02:19:54;;;;;;;8.53;5.30;;;;;;;4.26;50.56;96193.25;5012956;28;20210;-75
2021/04/24 02:22:21;;;;;;;7.37;4.97;;;;;;;4.17;50.73;96202.34;5012814;28;20655;-75
2021/04/24 02:24:56;;;;;;;8.00;4.97;;;;;;;4.23;50.46;96201.94;4994703;28;20588;-75
2021/04/24 02:27:22;;;;;;;8.93;4.73;;;;;;;4.22;50.75;96196.91;4994991;28;20645;-75
2021/04/24 02:29:49;;;;;;;8.63;4.73;;;;;;;4.24;51.04;96200.19;4995049;28;20187;-74
2021/04/24 02:32:15;;;;;;;12.93;5.07;;;;;;;4.17;50.86;96192.06;5012396;28;20233;-75
2021/04/24 02:34:42;;;;;;;8.07;4.93;;;;;;;4.14;51.27;96192.22;4994555;28;20592;-75
2021/04/24 02:37:09;;;;;;;7.73;4.93;;;;;;;4.11;51.13;96194.16;5012549;28;20178;-74
2021/04/24 02:39:40;;;;;;;9.13;4.97;;;;;;;4.09;51.24;96191.69;5012628;28;20761;-75
2021/04/24 02:42:08;;;;;;;10.77;4.63;;;;;;;4.14;51.02;96193.97;4994680;28;20697;-75
2021/04/24 02:44:34;;;;;;;8.60;4.90;;;;;;;4.06;50.99;96186.72;5012290;28;20195;-75
2021/04/24 02:47:00;;;;;;;7.07;4.60;;;;;;;4.05;51.25;96187.63;4994741;28;20207;-75
2021/04/24 02:49:26;;;;;;;13.93;5.47;;;;;;;3.99;51.37;96190.59;5010805;28;20588;-75
2021/04/24 02:51:52;;;;;;;8.50;4.80;;;;;;;3.98;51.57;96189.75;5012195;28;20184;-75
2021/04/24 02:54:18;;;;;;;7.43;4.53;;;;;;;3.94;51.38;96190.84;5010818;28;20186;-74
2021/04/24 02:56:43;;;;;;;7.90;5.20;;;;;;;3.93;51.55;96186.63;5010971;28;20274;-75
2021/04/24 02:59:08;;;;;;;7.77;4.30;;;;;;;3.92;51.50;96192.69;4994605;28;20190;-75
2021/04/24 03:01:34;;;;;;;8.60;5.10;;;;;;;3.91;51.33;96188.47;5012239;28;20218;-75
2021/04/24 03:03:59;;;;;;;10.70;5.80;;;;;;;3.94;51.25;96184.88;4978407;28;20203;-75
2021/04/24 03:06:25;;;;;;;10.27;5.23;;;;;;;3.95;51.49;96186.53;4994093;28;20670;-74
2021/04/24 03:08:50;;;;;;;11.17;4.90;;;;;;;3.92;52.08;96189.28;4994430;28;20294;-75
2021/04/24 03:11:15;;;;;;;6.50;4.27;;;;;;;3.91;51.55;96187.66;5012001;28;20662;-75
2021/04/24 03:13:41;;;;;;;10.60;5.27;;;;;;;3.84;51.77;96188.91;5012060;28;20234;-75
2021/04/24 03:16:06;;;;;;;11.70;4.90;;;;;;;3.78;51.91;96186.72;4977778;28;20199;-75
2021/04/24 03:18:33;;;;;;;9.93;5.23;;;;;;;3.70;52.07;96185.41;4978146;28;20198;-75
2021/04/24 03:20:58;;;;;;;9.20;4.60;;;;;;;3.65;52.51;96177.16;4978435;28;20237;-74
2021/04/24 03:23:24;;;;;;;9.57;4.90;;;;;;;3.62;52.22;96184.22;4990975;28;20193;-75
2021/04/24 03:25:49;;;;;;;8.63;4.53;;;;;;;3.56;52.62;96169.19;5026384;28;20214;-74
2021/04/24 03:28:14;;;;;;;8.83;5.23;;;;;;;3.52;53.01;96175.38;4994158;28;20238;-75
2021/04/24 03:30:40;;;;;;;9.93;5.17;;;;;;;3.57;52.71;96166.50;5011791;28;20538;-75
2021/04/24 03:33:06;;;;;;;10.93;5.17;;;;;;;3.61;52.79;96167.97;4994233;28;20636;-74
2021/04/24 03:35:31;;;;;;;7.33;4.77;;;;;;;3.59;52.48;96167.25;4993864;28;20286;-75
2021/04/24 03:37:56;;;;;;;12.23;5.27;;;;;;;3.64;52.52;96164.41;4994104;28;20262;-74
2021/04/24 03:40:22;;;;;;;12.07;5.43;;;;;;;3.66;52.41;96160.00;5011833;28;20237;-74
2021/04/24 03:42:47;;;;;;;8.57;5.03;;;;;;;3.74;52.46;96167.28;4994142;28;20222;-75
2021/04/24 03:45:19;;;;;;;9.67;5.23;;;;;;;3.70;52.38;96164.88;4996734;28;20238;-75
2021/04/24 03:47:47;;;;;;;9.53;5.27;;;;;;;3.78;52.24;96161.00;4999000;28;20184;-74
2021/04/24 03:50:12;;;;;;;8.87;5.10;;;;;;;3.78;52.01;96155.88;4997843;28;20678;-75
2021/04/24 03:52:38;;;;;;;10.00;5.00;;;;;;;3.81;52.06;96169.38;4997921;28;20183;-75
2021/04/24 03:55:04;;;;;;;8.60;5.30;;;;;;;3.80;52.34;96164.31;5015268;28;20880;-75
2021/04/24 03:57:29;;;;;;;8.97;5.30;;;;;;;3.84;51.74;96165.81;5014223;28;20663;-75
2021/04/24 03:59:54;;;;;;;9.70;5.50;;;;;;;3.96;51.71;96170.19;4998007;28;20210;-74
2021/04/24 04:02:20;;;;;;;12.70;5.53;;;;;;;4.14;50.99;96168.25;4997679;28;20187;-74
2021/04/24 04:04:45;;;;;;;8.67;4.73;;;;;;;4.16;50.94;96174.16;4997256;28;20201;-74
2021/04/24 04:07:11;;;;;;;8.53;5.20;;;;;;;4.13;51.12;96172.56;5015270;28;20179;-73
2021/04/24 04:09:36;;;;;;;9.90;5.37;;;;;;;4.09;51.17;96173.69;5015302;28;20209;-75
2021/04/24 04:12:02;;;;;;;7.37;4.83;;;;;;;4.02;51.54;96172.41;5015259;28;20805;-74
2021/04/24 04:14:27;;;;;;;9.30;5.20;;;;;;;3.99;51.09;96177.75;5014865;28;20190;-74
2021/04/24 04:16:52;;;;;;;7.67;4.73;;;;;;;3.91;51.88;96179.94;4997416;28;20237;-74
2021/04/24 04:19:17;;;;;;;11.60;5.30;;;;;;;3.86;51.53;96179.38;4997463;28;20262;-74
2021/04/24 04:21:43;;;;;;;10.50;6.43;;;;;;;3.82;52.09;96180.50;4981177;28;20288;-74
2021/04/24 04:24:08;;;;;;;9.07;5.50;;;;;;;3.81;52.08;96184.81;4997434;28;20179;-74
2021/04/24 04:26:33;;;;;;;9.50;5.00;;;;;;;3.78;51.88;96186.72;5014500;28;20215;-74
2021/04/24 04:29:00;;;;;;;7.60;4.97;;;;;;;3.81;51.78;96191.69;5013557;28;20217;-73
2021/04/24 04:31:25;;;;;;;7.90;5.37;;;;;;;3.84;51.88;96189.75;5014832;28;20194;-74
2021/04/24 04:33:50;;;;;;;8.40;5.03;;;;;;;3.84;52.31;96189.75;4980870;28;20642;-74
2021/04/24 04:36:16;;;;;;;12.73;5.47;;;;;;;3.92;52.12;96190.13;4996960;28;20253;-74
2021/04/24 04:38:41;;;;;;;8.93;5.30;;;;;;;3.98;52.27;96194.91;5014824;28;20179;-74
2021/04/24 04:41:08;;;;;;;12.83;5.43;;;;;;;4.08;51.81;96194.34;4997008;28;20613;-74
2021/04/24 04:43:33;;;;;;;10.53;5.73;;;;;;;4.19;51.55;96197.91;4997312;28;20175;-74
2021/04/24 04:45:58;;;;;;;9.53;5.60;;;;;;;4.29;51.31;96199.94;4996618;28;20214;-74
2021/04/24 04:48:24;;;;;;;8.57;5.17;;;;;;;4.37;51.42;96203.69;5014190;28;20526;-73
2021/04/24 04:50:49;;;;;;;7.73;5.37;;;;;;;4.42;51.39;96196.53;4997060;28;20179;-74
2021/04/24 04:53:14;;;;;;;7.43;4.97;;;;;;;4.52;51.69;96201.94;5014431;28;20186;-74
2021/04/24 04:55:40;;;;;;;9.23;5.93;;;;;;;4.62;51.42;96203.00;4995958;28;20227;-74
2021/04/24 04:58:05;;;;;;;10.60;5.00;;;;;;;4.76;51.06;96208.09;5014373;28;20593;-74
2021/04/24 05:00:31;;;;;;;9.13;4.90;;;;;;;5.06;50.88;96201.97;4980425;28;20696;-74
2021/04/24 05:02:56;;;;;;;8.70;5.27;;;;;;;5.83;49.20;96208.06;4996698;28;20188;-74
2021/04/24 05:05:22;;;;;;;11.90;4.73;;;;;;;6.43;48.39;96204.88;5012612;28;20218;-73
2021/04/24 05:07:49;;;;;;;10.70;4.87;;;;;;;7.55;46.16;96214.03;4996680;28;20186;-74
2021/04/24 05:10:16;;;;;;;9.77;5.40;;;;;;;8.21;43.90;96209.91;5012965;28;20171;-74
2021/04/24 05:12:41;;;;;;;8.83;5.17;;;;;;;8.18;43.83;96210.16;4996521;28;20183;-74
2021/04/24 05:15:07;;;;;;;7.87;5.63;;;;;;;7.50;44.43;96203.19;4996246;28;20199;-74
2021/04/24 05:17:33;;;;;;;8.30;5.17;;;;;;;7.34;44.94;96207.88;4996483;28;20198;-74
2021/04/24 05:19:58;;;;;;;9.83;4.83;;;;;;;7.07;45.51;96206.34;4996346;28;20180;-74
2021/04/24 05:22:23;;;;;;;8.30;4.90;;;;;;;6.95;46.11;96209.78;4996447;28;20190;-74
2021/04/24 05:24:49;;;;;;;9.30;5.60;;;;;;;6.81;45.53;96213.34;4995938;28;20294;-74
2021/04/24 05:27:14;;;;;;;8.03;4.93;;;;;;;6.71;46.25;96214.09;5013835;28;20264;-74
2021/04/24 05:29:39;;;;;;;15.13;5.90;;;;;;;6.48;46.62;96210.53;4996034;28;20213;-75
2021/04/24 05:32:05;;;;;;;9.53;6.20;;;;;;;6.53;46.49;96211.03;5012463;28;20190;-74
2021/04/24 05:34:31;;;;;;;10.27;5.50;;;;;;;6.47;47.32;96216.63;5012154;28;20278;-73
2021/04/24 05:36:57;;;;;;;11.17;5.23;;;;;;;6.49;47.17;96213.00;4996117;28;20556;-73
2021/04/24 05:39:22;;;;;;;10.07;5.70;;;;;;;6.51;47.03;96211.13;4979860;28;20321;-74
2021/04/24 05:41:48;;;;;;;9.60;5.10;;;;;;;6.62;46.61;96214.72;4979824;28;20179;-74
2021/04/24 05:44:13;;;;;;;10.30;5.80;;;;;;;6.72;46.17;96218.34;5013285;28;20175;-73
2021/04/24 05:46:38;;;;;;;8.23;4.83;;;;;;;6.87;46.02;96219.00;4979404;28;20217;-74
2021/04/24 05:49:04;;;;;;;10.50;5.90;;;;;;;6.87;45.60;96216.41;4979488;28;20549;-74
2021/04/24 05:51:30;;;;;;;8.00;5.37;;;;;;;7.14;45.03;96213.63;4995800;28;20250;-74
2021/04/24 05:53:55;;;;;;;10.33;5.80;;;;;;;7.24;44.53;96222.34;5013249;28;20183;-74
2021/04/24 05:56:22;;;;;;;10.43;5.13;;;;;;;7.47;44.50;96223.28;4995557;28;20245;-74
2021/04/24 05:58:51;;;;;;;9.93;6.03;;;;;;;7.59;44.50;96219.78;4979348;28;20218;-74
2021/04/24 06:01:17;;;;;;;11.53;5.77;;;;;;;7.65;44.12;96227.09;4995593;28;20589;-74
2021/04/24 06:03:42;;;;;;;10.73;6.33;;;;;;;7.82;44.25;96223.28;5011626;28;20277;-74
2021/04/24 06:06:07;;;;;;;10.40;5.60;;;;;;;7.97;42.18;96231.66;4995737;28;20216;-73
2021/04/24 06:08:33;;;;;;;9.43;6.23;;;;;;;8.07;42.17;96228.25;4974603;28;20179;-74
2021/04/24 06:10:58;;;;;;;15.30;6.30;;;;;;;8.15;42.43;96228.50;4973782;28;20670;-74
2021/04/24 06:13:24;;;;;;;9.03;5.70;;;;;;;8.23;42.92;96228.75;4975421;28;20667;-74
2021/04/24 06:15:50;;;;;;;9.30;5.93;;;;;;;8.36;41.92;96239.00;4955337;28;20193;-74
2021/04/24 06:18:16;;;;;;;10.23;6.00;;;;;;;8.33;41.25;96233.22;4967542;28;20183;-74
2021/04/24 06:20:42;;;;;;;12.07;6.77;;;;;;;8.38;41.61;96229.34;4991578;28;20194;-74
2021/04/24 06:23:07;;;;;;;8.13;6.20;;;;;;;8.55;40.68;96227.25;4959679;28;20184;-74
2021/04/24 06:25:33;;;;;;;9.77;5.97;;;;;;;8.64;40.53;96226.53;4975610;28;20266;-75
2021/04/24 06:27:58;;;;;;;10.33;5.70;;;;;;;8.63;40.06;96230.06;4975852;28;20188;-75
2021/04/24 06:30:25;;;;;;;11.90;5.90;;;;;;;8.73;39.78;96231.81;4959228;28;20186;-75
2021/04/24 06:32:51;;;;;;;8.57;5.60;;;;;;;9.24;38.74;96226.06;4975664;28;20278;-74
2021/04/24 06:35:17;;;;;;;12.17;6.10;;;;;;;10.27;37.42;96228.88;4958717;28;20275;-75
2021/04/24 06:37:43;;;;;;;9.50;5.47;;;;;;;11.88;34.27;96234.69;4974740;28;20303;-75
2021/04/24 06:40:10;;;;;;;9.63;5.80;;;;;;;13.46;31.30;96233.78;4976172;28;20183;-74
2021/04/24 06:42:36;;;;;;;12.10;6.63;;;;;;;14.16;29.29;96234.69;4975644;28;20183;-75
2021/04/24 06:45:04;;;;;;;8.17;5.30;;;;;;;15.67;27.64;96236.66;4974557;28;20203;-75
2021/04/24 06:47:30;;;;;;;9.77;5.53;;;;;;;16.27;26.61;96232.88;4975737;28;20172;-74
2021/04/24 06:49:55;;;;;;;12.97;5.90;;;;;;;16.14;26.38;96242.06;4974833;28;20239;-74
2021/04/24 06:52:20;;;;;;;8.97;5.20;;;;;;;16.54;25.59;96234.31;4975861;28;20239;-74
2021/04/24 06:54:45;;;;;;;9.27;5.45;;;;;;;16.64;25.94;96240.19;4992615;28;20199;-75
2021/04/24 06:57:11;;;;;;;8.07;5.38;;;;;;;16.68;25.49;96238.84;4975050;28;20702;-76
2021/04/24 06:59:36;;;;;;;9.55;5.82;;;;;;;16.62;25.83;96242.16;4959342;28;20190;-76
2021/04/24 07:02:02;;;;;;;10.50;6.00;;;;;;;16.28;25.79;96237.97;4975151;28;20335;-76
2021/04/24 07:04:27;;;;;;;9.10;5.88;;;;;;;16.05;26.18;96240.41;4975060;28;20191;-76
2021/04/24 07:06:53;;;;;;;12.35;6.95;;;;;;;16.12;26.02;96243.22;4958888;28;20210;-76
2021/04/24 07:09:18;;;;;;;10.65;5.72;;;;;;;14.89;27.92;96236.91;4975232;28;20176;-76
2021/04/24 07:11:43;;;;;;;8.60;4.82;;;;;;;13.02;31.68;96241.44;4974997;28;20183;-76
2021/04/24 07:14:09;;;;;;;8.27;5.27;;;;;;;12.87;32.92;96234.25;4974450;28;20182;-75
2021/04/24 07:16:34;;;;;;;11.83;5.53;;;;;;;11.81;35.62;96235.38;4991760;28;20215;-76
2021/04/24 07:18:59;;;;;;;7.63;5.37;;;;;;;11.58;36.15;96234.81;4974591;28;20562;-76
2021/04/24 07:21:25;;;;;;;9.30;6.10;;;;;;;11.17;36.17;96230.69;4958917;28;20187;-76
2021/04/24 07:23:51;;;;;;;9.63;5.53;;;;;;;11.28;36.77;96235.75;4974903;28;20191;-76
2021/04/24 07:26:17;;;;;;;11.40;6.17;;;;;;;11.13;36.01;96230.13;4992116;28;20215;-76
2021/04/24 07:28:42;;;;;;;10.43;6.27;;;;;;;10.85;36.98;96228.25;4974686;28;20551;-76
2021/04/24 07:31:09;;;;;;;9.03;6.03;;;;;;;10.74;37.74;96230.03;4974883;28;20172;-75
2021/04/24 07:33:34;;;;;;;11.47;6.20;;;;;;;10.82;37.57;96237.16;4974982;28;20183;-76
2021/04/24 07:36:00;;;;;;;10.87;6.23;;;;;;;10.90;36.34;96239.91;4974655;28;20195;-76
2021/04/24 07:38:25;;;;;;;11.00;6.27;;;;;;;11.01;37.22;96238.97;4958754;28;20175;-76
2021/04/24 07:40:50;;;;;;;9.57;5.93;;;;;;;11.04;36.85;96234.34;4992268;28;20670;-76
2021/04/24 07:43:16;;;;;;;10.17;6.20;;;;;;;10.75;37.29;96233.44;4974744;28;20184;-76
2021/04/24 07:45:42;;;;;;;12.03;5.90;;;;;;;10.67;37.02;96226.28;4972008;28;20239;-76
2021/04/24 07:48:07;;;;;;;12.67;5.73;;;;;;;11.03;38.53;96229.25;4955267;28;20187;-76
2021/04/24 07:50:34;;;;;;;9.30;5.70;;;;;;;11.21;36.70;96229.44;4955350;28;20184;-76
2021/04/24 07:53:00;;;;;;;7.90;6.47;;;;;;;11.24;36.11;96221.38;4991422;28;20185;-80
2021/04/24 07:55:26;;;;;;;9.33;6.33;;;;;;;11.29;36.17;96225.19;4990705;28;20211;-79
2021/04/24 07:57:52;;;;;;;8.20;5.90;;;;;;;11.63;34.41;96228.22;4974962;28;20180;-79
2021/04/24 08:00:17;;;;;;;8.43;5.73;;;;;;;11.90;34.96;96230.16;4976122;28;20275;-77
2021/04/24 08:02:43;;;;;;;11.27;5.63;;;;;;;12.17;35.21;96229.44;4957306;28;20191;-76
2021/04/24 08:05:09;;;;;;;7.43;5.80;;;;;;;11.90;34.96;96229.34;4955500;28;20259;-76
2021/04/24 08:07:34;;;;;;;12.83;5.97;;;;;;;12.13;34.86;96225.47;4955250;28;20763;-75
2021/04/24 08:09:59;;;;;;;11.70;6.43;;;;;;;12.09;33.92;96229.31;4971338;28;20220;-74
2021/04/24 08:12:24;;;;;;;9.40;5.50;;;;;;;12.03;33.85;96227.28;4970889;28;20191;-75
2021/04/24 08:14:50;;;;;;;10.60;5.73;;;;;;;12.28;34.11;96230.22;4954911;28;20196;-74
2021/04/24 08:17:16;;;;;;;12.03;6.40;;;;;;;12.13;33.44;96235.88;4987863;28;20177;-74
2021/04/24 08:19:41;;;;;;;12.10;7.07;;;;;;;11.93;34.00;96236.88;4987341;28;20219;-74
2021/04/24 08:22:07;;;;;;;14.43;7.23;;;;;;;11.91;33.83;96236.19;4987235;28;20231;-74
2021/04/24 08:24:33;;;;;;;14.60;6.47;;;;;;;12.21;34.43;96232.59;4971900;28;20189;-73
2021/04/24 08:26:59;;;;;;;11.20;5.97;;;;;;;12.40;34.21;96236.91;4987454;28;20586;-75
2021/04/24 08:29:24;;;;;;;13.50;6.47;;;;;;;12.72;33.66;96232.13;4987027;28;20187;-75
2021/04/24 08:31:50;;;;;;;8.80;6.20;;;;;;;12.73;32.32;96228.56;4974157;28;20232;-75
2021/04/24 08:34:17;;;;;;;9.17;6.07;;;;;;;12.64;32.15;96221.63;4990401;28;20179;-74
2021/04/24 08:36:42;;;;;;;9.40;6.20;;;;;;;12.87;33.06;96227.25;4989718;28;20676;-75
2021/04/24 08:39:08;;;;;;;11.90;7.00;;;;;;;13.24;33.18;96229.81;4990102;28;20176;-75
2021/04/24 08:41:34;;;;;;;10.33;6.20;;;;;;;13.36;32.11;96224.41;4958433;28;20172;-74
2021/04/24 08:43:59;;;;;;;14.23;7.17;;;;;;;13.16;32.08;96224.47;4958201;28;20185;-74
2021/04/24 08:46:26;;;;;;;13.90;6.93;;;;;;;13.52;32.50;96229.78;4958004;28;20219;-74
2021/04/24 08:48:53;;;;;;;13.43;6.67;;;;;;;13.28;31.01;96223.34;4975044;28;20200;-76
2021/04/24 08:51:22;;;;;;;12.50;6.70;;;;;;;13.57;30.77;96223.13;4958097;28;20183;-76
2021/04/24 08:53:49;;;;;;;10.50;7.00;;;;;;;13.87;31.31;96224.53;4958030;28;20188;-76
2021/04/24 08:56:14;;;;;;;9.83;6.83;;;;;;;13.96;31.06;96221.97;4957587;28;20224;-76
2021/04/24 08:58:39;;;;;;;9.70;6.20;;;;;;;14.22;30.25;96214.13;4957860;28;20173;-76
2021/04/24 09:01:05;;;;;;;11.97;7.10;;;;;;;14.19;29.64;96212.66;4975085;28;20187;-75
2021/04/24 09:03:30;;;;;;;9.03;6.27;;;;;;;14.15;31.70;96216.56;4974987;28;20181;-75
2021/04/24 09:05:56;;;;;;;9.47;6.33;;;;;;;14.15;30.17;96219.19;4974708;28;20211;-75
2021/04/24 09:08:27;;;;;;;11.43;5.73;;;;;;;13.95;31.15;96220.31;4957613;28;20204;-76
2021/04/24 09:11:00;;;;;;;11.07;7.00;;;;;;;14.15;30.23;96214.78;4973736;28;20287;-76
2021/04/24 09:13:26;;;;;;;10.80;7.20;;;;;;;14.01;28.12;96215.31;4989986;28;20181;-76
2021/04/24 09:15:53;;;;;;;10.37;6.23;;;;;;;14.14;27.58;96210.53;4981395;28;20512;-76
2021/04/24 09:18:20;;;;;;;9.80;6.70;;;;;;;14.07;28.52;96204.28;4974798;28;20177;-75
2021/04/24 09:20:55;;;;;;;13.63;6.87;;;;;;;14.50;27.84;96204.41;4989748;28;20180;-76
2021/04/24 09:23:28;;;;;;;10.20;6.80;;;;;;;14.57;27.36;96206.22;4957614;28;20199;-76
2021/04/24 09:26:01;;;;;;;9.20;6.17;;;;;;;14.60;28.02;96194.63;4974173;28;20205;-76
2021/04/24 09:28:32;;;;;;;9.30;5.73;;;;;;;14.67;27.61;96203.50;4973080;28;20279;-76
2021/04/24 09:31:01;;;;;;;11.70;6.53;;;;;;;14.81;27.24;96200.28;4941371;28;20177;-76
2021/04/24 09:33:33;;;;;;;11.17;6.70;;;;;;;14.92;28.53;96193.94;4972949;28;20582;-75
2021/04/24 09:35:58;;;;;;;10.87;6.47;;;;;;;14.88;27.62;96195.25;4988845;28;20275;-76
2021/04/24 09:38:29;;;;;;;9.07;5.93;;;;;;;14.99;26.57;96195.75;4957083;28;20688;-76
2021/04/24 09:41:05;;;;;;;12.77;7.23;;;;;;;14.88;25.70;96188.22;4957004;28;20204;-76
2021/04/24 09:43:56;;;;;;;9.80;6.47;;;;;;;14.95;26.31;96191.84;4957020;28;20299;-76
2021/04/24 09:46:44;;;;;;;13.47;6.37;;;;;;;14.89;27.99;96184.63;4957332;28;20208;-75
2021/04/24 09:49:29;;;;;;;9.73;6.53;;;;;;;14.58;26.50;96179.13;4972526;28;20231;-76
2021/04/24 09:51:58;;;;;;;12.53;6.70;;;;;;;14.69;25.85;96186.69;4972937;28;20176;-76
2021/04/24 09:54:35;;;;;;;7.67;5.90;;;;;;;15.07;27.76;96178.44;4988562;28;20185;-75
2021/04/24 09:57:07;;;;;;;8.50;5.90;;;;;;;15.15;27.65;96174.06;4956760;28;20231;-75
2021/04/24 09:59:53;;;;;;;9.17;6.23;;;;;;;15.42;24.85;96175.56;4956874;28;20180;-76
2021/04/24 10:02:28;;;;;;;11.03;6.17;;;;;;;15.17;24.12;96176.50;4988960;28;20181;-75
2021/04/24 10:05:14;;;;;;;8.30;5.80;;;;;;;14.81;24.10;96170.69;4972399;28;20630;-75
2021/04/24 10:07:42;;;;;;;10.33;5.63;;;;;;;14.54;23.98;96169.13;4973773;28;20180;-77
2021/04/24 10:10:09;;;;;;;9.83;5.67;;;;;;;14.67;24.17;96159.06;4973960;28;20183;-75
2021/04/24 10:12:35;;;;;;;7.77;5.33;;;;;;;14.77;23.70;96159.75;4956601;28;20183;-75
2021/04/24 10:15:00;;;;;;;8.87;5.27;;;;;;;14.87;25.69;96155.19;4956118;28;20204;-74
2021/04/24 10:17:26;;;;;;;7.20;5.13;;;;;;;15.29;24.90;96155.13;4988552;28;20183;-75
2021/04/24 10:19:53;;;;;;;11.83;5.13;;;;;;;15.20;24.40;96152.66;4956430;28;20168;-75
2021/04/24 10:22:21;;;;;;;5.17;4.03;;;;;;;15.43;24.51;96151.03;4956192;28;20188;-74
2021/04/24 10:24:46;;;;;;;8.70;4.47;;;;;;;15.29;20.75;96147.28;4956102;28;20200;-74
2021/04/24 10:27:14;;;;;;;6.13;4.27;;;;;;;15.47;22.62;96152.34;4972143;28;20805;-75
2021/04/24 10:29:41;;;;;;;6.80;4.67;;;;;;;15.67;24.32;96149.44;4972244;28;20193;-76
2021/04/24 10:32:06;;;;;;;7.87;5.10;;;;;;;15.57;21.33;96142.53;4973320;28;20223;-76
2021/04/24 10:34:32;;;;;;;7.70;5.00;;;;;;;15.33;23.23;96145.16;4955701;28;20208;-76
2021/04/24 10:36:57;;;;;;;13.90;8.73;;;;;;;15.45;29.87;96138.59;4955870;28;20242;-76
2021/04/24 10:39:25;;;;;;;15.40;8.07;;;;;;;15.40;28.40;96151.38;4955778;28;20188;-76
2021/04/24 10:41:53;;;;;;;15.97;8.47;;;;;;;15.18;29.60;96138.91;4955924;28;20227;-75
2021/04/24 10:44:19;;;;;;;18.40;9.20;;;;;;;15.07;30.31;96134.81;4973120;28;20541;-76
2021/04/24 10:46:49;;;;;;;13.33;8.43;;;;;;;15.05;30.23;96135.94;4955848;28;20201;-76
2021/04/24 10:49:20;;;;;;;15.63;8.63;;;;;;;15.00;30.33;96124.16;4955308;28;20228;-75
2021/04/24 10:51:53;;;;;;;16.63;9.07;;;;;;;14.90;30.29;96126.09;4955692;28;20183;-76
2021/04/24 10:54:19;;;;;;;9.13;6.53;;;;;;;15.13;27.03;96130.75;4971138;28;20172;-74
2021/04/24 10:56:44;;;;;;;10.97;6.47;;;;;;;15.23;25.52;96131.41;4973051;28;20610;-76
2021/04/24 10:59:20;;;;;;;9.10;6.37;;;;;;;15.25;26.50;96134.66;4955605;28;20211;-76
2021/04/24 11:02:11;;;;;;;10.60;7.73;;;;;;;15.23;28.89;96140.06;4955788;28;20183;-76
2021/04/24 11:04:50;;;;;;;20.90;9.33;;;;;;;15.35;29.78;96122.25;4972688;28;20303;-75
2021/04/24 11:07:29;;;;;;;12.70;6.97;;;;;;;15.64;25.51;96128.84;4971723;28;20204;-75
2021/04/24 11:10:10;;;;;;;10.77;5.80;;;;;;;15.57;22.28;96124.22;4971974;28;20181;-75
2021/04/24 11:12:39;;;;;;;9.53;6.13;;;;;;;15.66;23.79;96119.00;4972923;28;20591;-75
2021/04/24 11:15:06;;;;;;;16.23;8.87;;;;;;;15.31;28.47;96118.31;4939042;28;20215;-75
2021/04/24 11:17:32;;;;;;;12.60;8.80;;;;;;;14.94;29.08;96119.59;4987599;28;20216;-75
2021/04/24 11:19:57;;;;;;;16.53;9.47;;;;;;;14.85;28.80;96123.16;4955632;28;20203;-73
2021/04/24 11:22:36;;;;;;;13.40;9.83;;;;;;;14.82;28.42;96122.66;4988458;28;20652;-75
2021/04/24 11:25:23;;;;;;;12.23;8.73;;;;;;;14.78;29.09;96124.78;4973009;28;20283;-76
2021/04/24 11:28:04;;;;;;;14.77;9.27;;;;;;;14.96;28.69;96115.00;4971943;28;20247;-75
2021/04/24 11:30:48;;;;;;;13.23;8.73;;;;;;;15.10;28.35;96118.78;4973494;28;20176;-75
2021/04/24 11:33:39;;;;;;;12.87;9.17;;;;;;;14.80;28.52;96114.16;4972318;28;20593;-75